sensor_id;sensor_type;location;lat;lon;timestamp;P1;durP1;ratioP1;P2;durP2;ratioP2
4096;SDS011;2062;50.694;7.246;2023-04-03T00:01:39;4.60;;;1.30;;
4096;SDS011;2062;50.694;7.246;2023-04-03T00:04:06;4.18;;;1.33;;
4096;SDS011;2062;50.694;7.246;2023-04-03T00:06:32;4.10;;;1.08;;
4096;SDS011;2062;50.694;7.246;2023-04-03T00:09:00;5.50;;;1.48;;
4096;SDS011;2062;50.694;7.246;2023-04-03T00:11:29;4.37;;;1.30;;
4096;SDS011;2062;50.694;7.246;2023-04-03T00:13:56;4.32;;;1.27;;
4096;SDS011;2062;50.694;7.246;2023-04-03T00:16:23;4.28;;;1.40;;
4096;SDS011;2062;50.694;7.246;2023-04-03T00:18:49;6.22;;;1.30;;
4096;SDS011;2062;50.694;7.246;2023-04-03T00:21:16;5.38;;;1.20;;
4096;SDS011;2062;50.694;7.246;2023-04-03T00:23:43;3.70;;;1.10;;
4096;SDS011;2062;50.694;7.246;2023-04-03T00:26:10;4.78;;;1.42;;
4096;SDS011;2062;50.694;7.246;2023-04-03T00:28:39;4.55;;;1.30;;
4096;SDS011;2062;50.694;7.246;2023-04-03T00:31:06;4.53;;;1.25;;
4096;SDS011;2062;50.694;7.246;2023-04-03T00:33:33;4.90;;;1.30;;
4096;SDS011;2062;50.694;7.246;2023-04-03T00:36:04;5.17;;;1.27;;
4096;SDS011;2062;50.694;7.246;2023-04-03T00:38:32;5.03;;;1.08;;
4096;SDS011;2062;50.694;7.246;2023-04-03T00:40:59;3.90;;;1.30;;
4096;SDS011;2062;50.694;7.246;2023-04-03T00:43:26;5.20;;;1.50;;
4096;SDS011;2062;50.694;7.246;2023-04-03T00:45:55;4.93;;;1.38;;
4096;SDS011;2062;50.694;7.246;2023-04-03T00:48:23;7.33;;;1.83;;
4096;SDS011;2062;50.694;7.246;2023-04-03T00:50:53;4.25;;;1.38;;
4096;SDS011;2062;50.694;7.246;2023-04-03T00:53:21;5.72;;;1.40;;
4096;SDS011;2062;50.694;7.246;2023-04-03T00:55:51;5.03;;;1.40;;
4096;SDS011;2062;50.694;7.246;2023-04-03T00:58:20;7.00;;;1.52;;
4096;SDS011;2062;50.694;7.246;2023-04-03T01:00:55;4.97;;;1.30;;
4096;SDS011;2062;50.694;7.246;2023-04-03T01:03:24;5.30;;;1.42;;
4096;SDS011;2062;50.694;7.246;2023-04-03T01:05:51;5.00;;;1.33;;
4096;SDS011;2062;50.694;7.246;2023-04-03T01:08:19;5.93;;;1.50;;
4096;SDS011;2062;50.694;7.246;2023-04-03T01:10:45;5.55;;;1.40;;
4096;SDS011;2062;50.694;7.246;2023-04-03T01:13:20;4.30;;;1.43;;
4096;SDS011;2062;50.694;7.246;2023-04-03T01:15:49;4.93;;;1.50;;
4096;SDS011;2062;50.694;7.246;2023-04-03T01:18:17;4.60;;;1.55;;
4096;SDS011;2062;50.694;7.246;2023-04-03T01:20:51;5.70;;;1.70;;
4096;SDS011;2062;50.694;7.246;2023-04-03T01:23:42;5.75;;;1.52;;
4096;SDS011;2062;50.694;7.246;2023-04-03T01:26:23;4.73;;;1.43;;
4096;SDS011;2062;50.694;7.246;2023-04-03T01:28:50;4.22;;;1.30;;
4096;SDS011;2062;50.694;7.246;2023-04-03T01:31:22;4.07;;;1.30;;
4096;SDS011;2062;50.694;7.246;2023-04-03T01:33:54;7.43;;;1.60;;
4096;SDS011;2062;50.694;7.246;2023-04-03T01:36:22;8.55;;;1.52;;
4096;SDS011;2062;50.694;7.246;2023-04-03T01:38:50;4.10;;;1.50;;
4096;SDS011;2062;50.694;7.246;2023-04-03T01:41:18;4.85;;;1.48;;
4096;SDS011;2062;50.694;7.246;2023-04-03T01:43:49;5.22;;;1.55;;
4096;SDS011;2062;50.694;7.246;2023-04-03T01:46:16;4.35;;;1.13;;
4096;SDS011;2062;50.694;7.246;2023-04-03T01:48:46;4.35;;;1.25;;
4096;SDS011;2062;50.694;7.246;2023-04-03T01:51:17;5.20;;;1.57;;
4096;SDS011;2062;50.694;7.246;2023-04-03T01:53:44;6.35;;;1.30;;
4096;SDS011;2062;50.694;7.246;2023-04-03T01:56:11;5.30;;;1.40;;
4096;SDS011;2062;50.694;7.246;2023-04-03T01:58:39;5.10;;;1.75;;
4096;SDS011;2062;50.694;7.246;2023-04-03T02:01:09;4.53;;;1.20;;
4096;SDS011;2062;50.694;7.246;2023-04-03T02:03:36;4.33;;;1.50;;
4096;SDS011;2062;50.694;7.246;2023-04-03T02:06:04;6.72;;;1.85;;
4096;SDS011;2062;50.694;7.246;2023-04-03T02:08:39;5.05;;;1.50;;
4096;SDS011;2062;50.694;7.246;2023-04-03T02:11:09;8.05;;;1.42;;
4096;SDS011;2062;50.694;7.246;2023-04-03T02:13:36;5.70;;;1.42;;
4096;SDS011;2062;50.694;7.246;2023-04-03T02:16:08;5.10;;;1.40;;
4096;SDS011;2062;50.694;7.246;2023-04-03T02:18:36;5.78;;;1.77;;
4096;SDS011;2062;50.694;7.246;2023-04-03T02:21:06;3.88;;;1.38;;
4096;SDS011;2062;50.694;7.246;2023-04-03T02:23:35;4.28;;;1.23;;
4096;SDS011;2062;50.694;7.246;2023-04-03T02:26:03;5.07;;;1.80;;
4096;SDS011;2062;50.694;7.246;2023-04-03T02:28:31;5.93;;;1.80;;
4096;SDS011;2062;50.694;7.246;2023-04-03T02:30:58;4.88;;;1.50;;
4096;SDS011;2062;50.694;7.246;2023-04-03T02:33:25;6.78;;;1.55;;
4096;SDS011;2062;50.694;7.246;2023-04-03T02:35:52;6.30;;;1.50;;
4096;SDS011;2062;50.694;7.246;2023-04-03T02:38:20;7.18;;;1.50;;
4096;SDS011;2062;50.694;7.246;2023-04-03T02:40:48;4.63;;;1.40;;
4096;SDS011;2062;50.694;7.246;2023-04-03T02:43:15;4.65;;;1.40;;
4096;SDS011;2062;50.694;7.246;2023-04-03T02:45:43;5.95;;;1.45;;
4096;SDS011;2062;50.694;7.246;2023-04-03T02:48:09;4.25;;;1.50;;
4096;SDS011;2062;50.694;7.246;2023-04-03T02:50:37;5.32;;;1.58;;
4096;SDS011;2062;50.694;7.246;2023-04-03T02:53:04;5.03;;;1.67;;
4096;SDS011;2062;50.694;7.246;2023-04-03T02:55:30;4.43;;;1.10;;
4096;SDS011;2062;50.694;7.246;2023-04-03T02:57:59;4.20;;;1.45;;
4096;SDS011;2062;50.694;7.246;2023-04-03T03:00:25;4.07;;;1.20;;
4096;SDS011;2062;50.694;7.246;2023-04-03T03:02:52;6.47;;;1.20;;
4096;SDS011;2062;50.694;7.246;2023-04-03T03:05:19;5.37;;;1.40;;
4096;SDS011;2062;50.694;7.246;2023-04-03T03:07:47;5.40;;;1.30;;
4096;SDS011;2062;50.694;7.246;2023-04-03T03:10:13;4.97;;;1.10;;
4096;SDS011;2062;50.694;7.246;2023-04-03T03:12:40;6.93;;;1.42;;
4096;SDS011;2062;50.694;7.246;2023-04-03T03:15:09;4.50;;;1.20;;
4096;SDS011;2062;50.694;7.246;2023-04-03T03:17:36;6.13;;;1.50;;
4096;SDS011;2062;50.694;7.246;2023-04-03T03:20:04;5.97;;;1.55;;
4096;SDS011;2062;50.694;7.246;2023-04-03T03:22:31;4.13;;;1.23;;
4096;SDS011;2062;50.694;7.246;2023-04-03T03:24:58;4.30;;;1.10;;
4096;SDS011;2062;50.694;7.246;2023-04-03T03:27:25;5.10;;;1.30;;
4096;SDS011;2062;50.694;7.246;2023-04-03T03:29:53;5.33;;;1.17;;
4096;SDS011;2062;50.694;7.246;2023-04-03T03:32:21;4.43;;;1.23;;
4096;SDS011;2062;50.694;7.246;2023-04-03T03:34:47;5.25;;;1.33;;
4096;SDS011;2062;50.694;7.246;2023-04-03T03:37:15;6.47;;;1.67;;
4096;SDS011;2062;50.694;7.246;2023-04-03T03:39:41;6.03;;;1.40;;
4096;SDS011;2062;50.694;7.246;2023-04-03T03:42:08;5.33;;;1.40;;
4096;SDS011;2062;50.694;7.246;2023-04-03T03:44:36;4.07;;;1.20;;
4096;SDS011;2062;50.694;7.246;2023-04-03T03:47:03;4.78;;;1.40;;
4096;SDS011;2062;50.694;7.246;2023-04-03T03:49:32;4.55;;;1.23;;
4096;SDS011;2062;50.694;7.246;2023-04-03T03:51:59;5.53;;;1.50;;
4096;SDS011;2062;50.694;7.246;2023-04-03T03:54:26;4.27;;;1.30;;
4096;SDS011;2062;50.694;7.246;2023-04-03T03:56:53;4.53;;;1.23;;
4096;SDS011;2062;50.694;7.246;2023-04-03T03:59:19;5.05;;;1.40;;
4096;SDS011;2062;50.694;7.246;2023-04-03T04:01:46;5.30;;;1.40;;
4096;SDS011;2062;50.694;7.246;2023-04-03T04:04:13;5.57;;;1.25;;
4096;SDS011;2062;50.694;7.246;2023-04-03T04:06:41;5.63;;;1.20;;
4096;SDS011;2062;50.694;7.246;2023-04-03T04:09:08;5.97;;;1.10;;
4096;SDS011;2062;50.694;7.246;2023-04-03T04:11:35;4.55;;;1.17;;
4096;SDS011;2062;50.694;7.246;2023-04-03T04:14:04;4.80;;;1.20;;
4096;SDS011;2062;50.694;7.246;2023-04-03T04:16:31;5.97;;;1.33;;
4096;SDS011;2062;50.694;7.246;2023-04-03T04:18:58;4.17;;;1.23;;
4096;SDS011;2062;50.694;7.246;2023-04-03T04:21:25;3.80;;;1.27;;
4096;SDS011;2062;50.694;7.246;2023-04-03T04:23:53;4.78;;;1.23;;
4096;SDS011;2062;50.694;7.246;2023-04-03T04:26:20;5.75;;;1.38;;
4096;SDS011;2062;50.694;7.246;2023-04-03T04:28:47;6.22;;;1.52;;
4096;SDS011;2062;50.694;7.246;2023-04-03T04:31:13;4.97;;;1.10;;
4096;SDS011;2062;50.694;7.246;2023-04-03T04:33:40;5.20;;;1.08;;
4096;SDS011;2062;50.694;7.246;2023-04-03T04:36:07;5.82;;;1.33;;
4096;SDS011;2062;50.694;7.246;2023-04-03T04:38:34;5.15;;;1.45;;
4096;SDS011;2062;50.694;7.246;2023-04-03T04:41:02;4.75;;;1.25;;
4096;SDS011;2062;50.694;7.246;2023-04-03T04:43:29;4.53;;;1.10;;
4096;SDS011;2062;50.694;7.246;2023-04-03T04:46:03;4.15;;;1.10;;
4096;SDS011;2062;50.694;7.246;2023-04-03T04:48:31;4.80;;;1.23;;
4096;SDS011;2062;50.694;7.246;2023-04-03T04:50:59;5.85;;;1.50;;
4096;SDS011;2062;50.694;7.246;2023-04-03T04:53:25;3.65;;;1.05;;
4096;SDS011;2062;50.694;7.246;2023-04-03T04:55:52;5.47;;;1.17;;
4096;SDS011;2062;50.694;7.246;2023-04-03T04:58:21;4.15;;;1.20;;
4096;SDS011;2062;50.694;7.246;2023-04-03T05:00:48;6.40;;;1.20;;
4096;SDS011;2062;50.694;7.246;2023-04-03T05:03:16;5.65;;;1.30;;
4096;SDS011;2062;50.694;7.246;2023-04-03T05:05:43;4.03;;;1.10;;
4096;SDS011;2062;50.694;7.246;2023-04-03T05:08:10;6.30;;;1.57;;
4096;SDS011;2062;50.694;7.246;2023-04-03T05:10:36;5.30;;;1.20;;
4096;SDS011;2062;50.694;7.246;2023-04-03T05:13:05;5.60;;;1.45;;
4096;SDS011;2062;50.694;7.246;2023-04-03T05:15:34;5.18;;;1.23;;
4096;SDS011;2062;50.694;7.246;2023-04-03T05:18:01;5.63;;;1.50;;
4096;SDS011;2062;50.694;7.246;2023-04-03T05:20:28;5.70;;;1.07;;
4096;SDS011;2062;50.694;7.246;2023-04-03T05:22:55;5.30;;;1.20;;
4096;SDS011;2062;50.694;7.246;2023-04-03T05:25:21;4.22;;;1.08;;
4096;SDS011;2062;50.694;7.246;2023-04-03T05:27:48;6.57;;;1.10;;
4096;SDS011;2062;50.694;7.246;2023-04-03T05:30:16;4.97;;;1.23;;
4096;SDS011;2062;50.694;7.246;2023-04-03T05:32:44;4.10;;;1.20;;
4096;SDS011;2062;50.694;7.246;2023-04-03T05:35:11;4.35;;;1.10;;
4096;SDS011;2062;50.694;7.246;2023-04-03T05:37:38;4.32;;;0.82;;
4096;SDS011;2062;50.694;7.246;2023-04-03T05:40:06;6.63;;;1.27;;
4096;SDS011;2062;50.694;7.246;2023-04-03T05:42:34;4.70;;;1.10;;
4096;SDS011;2062;50.694;7.246;2023-04-03T05:45:01;3.67;;;1.00;;
4096;SDS011;2062;50.694;7.246;2023-04-03T05:47:28;4.25;;;0.90;;
4096;SDS011;2062;50.694;7.246;2023-04-03T05:49:57;6.93;;;1.15;;
4096;SDS011;2062;50.694;7.246;2023-04-03T05:52:25;7.45;;;1.13;;
4096;SDS011;2062;50.694;7.246;2023-04-03T05:54:54;4.13;;;1.05;;
4096;SDS011;2062;50.694;7.246;2023-04-03T05:57:21;5.67;;;1.27;;
4096;SDS011;2062;50.694;7.246;2023-04-03T05:59:48;4.10;;;1.00;;
4096;SDS011;2062;50.694;7.246;2023-04-03T06:02:16;4.10;;;0.80;;
4096;SDS011;2062;50.694;7.246;2023-04-03T06:04:45;5.10;;;1.02;;
4096;SDS011;2062;50.694;7.246;2023-04-03T06:07:15;4.20;;;1.23;;
4096;SDS011;2062;50.694;7.246;2023-04-03T06:09:44;6.27;;;0.93;;
4096;SDS011;2062;50.694;7.246;2023-04-03T06:12:11;4.68;;;0.98;;
4096;SDS011;2062;50.694;7.246;2023-04-03T06:14:38;6.63;;;1.45;;
4096;SDS011;2062;50.694;7.246;2023-04-03T06:17:05;4.50;;;1.00;;
4096;SDS011;2062;50.694;7.246;2023-04-03T06:19:33;5.07;;;1.20;;
4096;SDS011;2062;50.694;7.246;2023-04-03T06:22:00;4.20;;;1.00;;
4096;SDS011;2062;50.694;7.246;2023-04-03T06:24:29;4.10;;;1.25;;
4096;SDS011;2062;50.694;7.246;2023-04-03T06:26:56;7.65;;;1.00;;
4096;SDS011;2062;50.694;7.246;2023-04-03T06:29:23;6.40;;;0.90;;
4096;SDS011;2062;50.694;7.246;2023-04-03T06:31:50;5.53;;;0.90;;
4096;SDS011;2062;50.694;7.246;2023-04-03T06:34:18;5.53;;;1.13;;
4096;SDS011;2062;50.694;7.246;2023-04-03T06:36:45;4.78;;;1.35;;
4096;SDS011;2062;50.694;7.246;2023-04-03T06:39:12;4.82;;;1.20;;
4096;SDS011;2062;50.694;7.246;2023-04-03T06:41:43;6.32;;;1.17;;
4096;SDS011;2062;50.694;7.246;2023-04-03T06:44:10;3.45;;;0.95;;
4096;SDS011;2062;50.694;7.246;2023-04-03T06:46:38;4.83;;;0.93;;
4096;SDS011;2062;50.694;7.246;2023-04-03T06:49:05;7.50;;;1.00;;
4096;SDS011;2062;50.694;7.246;2023-04-03T06:51:34;5.53;;;0.90;;
4096;SDS011;2062;50.694;7.246;2023-04-03T06:54:02;5.13;;;1.05;;
4096;SDS011;2062;50.694;7.246;2023-04-03T06:56:29;5.03;;;0.93;;
4096;SDS011;2062;50.694;7.246;2023-04-03T06:58:58;6.17;;;1.10;;
4096;SDS011;2062;50.694;7.246;2023-04-03T07:01:25;8.38;;;1.25;;
4096;SDS011;2062;50.694;7.246;2023-04-03T07:03:54;4.85;;;1.10;;
4096;SDS011;2062;50.694;7.246;2023-04-03T07:06:21;6.00;;;1.15;;
4096;SDS011;2062;50.694;7.246;2023-04-03T07:08:48;7.65;;;1.13;;
4096;SDS011;2062;50.694;7.246;2023-04-03T07:11:16;4.00;;;0.90;;
4096;SDS011;2062;50.694;7.246;2023-04-03T07:13:42;3.88;;;1.00;;
4096;SDS011;2062;50.694;7.246;2023-04-03T07:16:11;5.18;;;1.17;;
4096;SDS011;2062;50.694;7.246;2023-04-03T07:18:38;6.28;;;1.00;;
4096;SDS011;2062;50.694;7.246;2023-04-03T07:21:05;4.78;;;1.00;;
4096;SDS011;2062;50.694;7.246;2023-04-03T07:23:32;5.93;;;1.17;;
4096;SDS011;2062;50.694;7.246;2023-04-03T07:25:59;6.10;;;0.82;;
4096;SDS011;2062;50.694;7.246;2023-04-03T07:28:26;5.05;;;1.00;;
4096;SDS011;2062;50.694;7.246;2023-04-03T07:30:53;4.32;;;0.98;;
4096;SDS011;2062;50.694;7.246;2023-04-03T07:33:27;4.57;;;1.10;;
4096;SDS011;2062;50.694;7.246;2023-04-03T07:35:53;5.83;;;0.80;;
4096;SDS011;2062;50.694;7.246;2023-04-03T07:38:21;4.10;;;0.82;;
4096;SDS011;2062;50.694;7.246;2023-04-03T07:40:48;4.40;;;0.95;;
4096;SDS011;2062;50.694;7.246;2023-04-03T07:43:18;3.58;;;0.98;;
4096;SDS011;2062;50.694;7.246;2023-04-03T07:45:45;5.63;;;1.00;;
4096;SDS011;2062;50.694;7.246;2023-04-03T07:48:15;3.70;;;1.10;;
4096;SDS011;2062;50.694;7.246;2023-04-03T07:50:44;6.22;;;0.80;;
4096;SDS011;2062;50.694;7.246;2023-04-03T07:53:11;4.22;;;0.90;;
4096;SDS011;2062;50.694;7.246;2023-04-03T07:55:39;6.65;;;1.00;;
4096;SDS011;2062;50.694;7.246;2023-04-03T07:58:08;4.32;;;0.93;;
4096;SDS011;2062;50.694;7.246;2023-04-03T08:00:36;4.97;;;0.97;;
4096;SDS011;2062;50.694;7.246;2023-04-03T08:03:04;7.28;;;1.00;;
4096;SDS011;2062;50.694;7.246;2023-04-03T08:05:31;5.95;;;0.90;;
4096;SDS011;2062;50.694;7.246;2023-04-03T08:08:03;4.93;;;1.00;;
4096;SDS011;2062;50.694;7.246;2023-04-03T08:10:31;5.43;;;1.20;;
4096;SDS011;2062;50.694;7.246;2023-04-03T08:12:58;5.40;;;1.30;;
4096;SDS011;2062;50.694;7.246;2023-04-03T08:15:24;4.55;;;0.90;;
4096;SDS011;2062;50.694;7.246;2023-04-03T08:17:51;6.35;;;1.13;;
4096;SDS011;2062;50.694;7.246;2023-04-03T08:20:19;5.20;;;0.88;;
4096;SDS011;2062;50.694;7.246;2023-04-03T08:22:46;5.50;;;1.00;;
4096;SDS011;2062;50.694;7.246;2023-04-03T08:25:14;4.70;;;0.97;;
4096;SDS011;2062;50.694;7.246;2023-04-03T08:27:42;7.20;;;0.98;;
4096;SDS011;2062;50.694;7.246;2023-04-03T08:30:10;5.18;;;1.00;;
4096;SDS011;2062;50.694;7.246;2023-04-03T08:32:37;5.72;;;1.40;;
4096;SDS011;2062;50.694;7.246;2023-04-03T08:35:05;4.32;;;0.90;;
4096;SDS011;2062;50.694;7.246;2023-04-03T08:37:34;3.30;;;0.83;;
4096;SDS011;2062;50.694;7.246;2023-04-03T08:40:01;4.35;;;0.88;;
4096;SDS011;2062;50.694;7.246;2023-04-03T08:42:34;5.03;;;1.10;;
4096;SDS011;2062;50.694;7.246;2023-04-03T08:45:08;4.75;;;1.17;;
4096;SDS011;2062;50.694;7.246;2023-04-03T08:47:40;4.05;;;1.00;;
4096;SDS011;2062;50.694;7.246;2023-04-03T08:50:14;4.33;;;0.90;;
4096;SDS011;2062;50.694;7.246;2023-04-03T08:52:44;7.68;;;1.10;;
4096;SDS011;2062;50.694;7.246;2023-04-03T08:55:17;5.40;;;1.10;;
4096;SDS011;2062;50.694;7.246;2023-04-03T08:57:51;8.18;;;0.90;;
4096;SDS011;2062;50.694;7.246;2023-04-03T09:00:26;4.85;;;1.10;;
4096;SDS011;2062;50.694;7.246;2023-04-03T09:02:56;5.03;;;1.17;;
4096;SDS011;2062;50.694;7.246;2023-04-03T09:05:27;4.78;;;1.00;;
4096;SDS011;2062;50.694;7.246;2023-04-03T09:08:04;7.57;;;1.27;;
4096;SDS011;2062;50.694;7.246;2023-04-03T09:10:37;4.95;;;1.10;;
4096;SDS011;2062;50.694;7.246;2023-04-03T09:13:06;5.20;;;1.10;;
4096;SDS011;2062;50.694;7.246;2023-04-03T09:15:41;7.13;;;1.00;;
4096;SDS011;2062;50.694;7.246;2023-04-03T09:18:12;3.55;;;0.90;;
4096;SDS011;2062;50.694;7.246;2023-04-03T09:20:43;6.45;;;1.10;;
4096;SDS011;2062;50.694;7.246;2023-04-03T09:23:18;2.97;;;0.70;;
4096;SDS011;2062;50.694;7.246;2023-04-03T09:25:51;4.38;;;1.00;;
4096;SDS011;2062;50.694;7.246;2023-04-03T09:28:24;5.80;;;1.07;;
4096;SDS011;2062;50.694;7.246;2023-04-03T09:30:51;3.97;;;0.73;;
4096;SDS011;2062;50.694;7.246;2023-04-03T09:33:18;5.60;;;1.17;;
4096;SDS011;2062;50.694;7.246;2023-04-03T09:35:46;5.32;;;1.23;;
4096;SDS011;2062;50.694;7.246;2023-04-03T09:38:16;4.78;;;1.20;;
4096;SDS011;2062;50.694;7.246;2023-04-03T09:40:45;4.20;;;1.00;;
4096;SDS011;2062;50.694;7.246;2023-04-03T09:43:24;3.85;;;0.90;;
4096;SDS011;2062;50.694;7.246;2023-04-03T09:45:53;4.88;;;1.02;;
4096;SDS011;2062;50.694;7.246;2023-04-03T09:48:22;5.57;;;1.20;;
4096;SDS011;2062;50.694;7.246;2023-04-03T09:50:57;5.13;;;1.02;;
4096;SDS011;2062;50.694;7.246;2023-04-03T09:53:32;3.73;;;0.80;;
4096;SDS011;2062;50.694;7.246;2023-04-03T09:56:02;5.53;;;1.00;;
4096;SDS011;2062;50.694;7.246;2023-04-03T09:58:33;4.47;;;0.80;;
4096;SDS011;2062;50.694;7.246;2023-04-03T10:01:04;5.32;;;1.33;;
4096;SDS011;2062;50.694;7.246;2023-04-03T10:03:32;4.18;;;1.20;;
4096;SDS011;2062;50.694;7.246;2023-04-03T10:06:01;5.10;;;1.20;;
4096;SDS011;2062;50.694;7.246;2023-04-03T10:08:30;4.28;;;0.90;;
4096;SDS011;2062;50.694;7.246;2023-04-03T10:11:11;3.75;;;0.88;;
4096;SDS011;2062;50.694;7.246;2023-04-03T10:13:57;4.07;;;0.75;;
4096;SDS011;2062;50.694;7.246;2023-04-03T10:16:35;4.13;;;0.90;;
4096;SDS011;2062;50.694;7.246;2023-04-03T10:19:12;3.30;;;0.87;;
4096;SDS011;2062;50.694;7.246;2023-04-03T10:21:55;3.65;;;0.80;;
4096;SDS011;2062;50.694;7.246;2023-04-03T10:24:28;3.50;;;0.70;;
4096;SDS011;2062;50.694;7.246;2023-04-03T10:27:03;4.47;;;0.90;;
4096;SDS011;2062;50.694;7.246;2023-04-03T10:29:40;4.80;;;1.10;;
4096;SDS011;2062;50.694;7.246;2023-04-03T10:32:18;4.63;;;0.70;;
4096;SDS011;2062;50.694;7.246;2023-04-03T10:34:57;4.05;;;0.80;;
4096;SDS011;2062;50.694;7.246;2023-04-03T10:37:34;4.18;;;0.80;;
4096;SDS011;2062;50.694;7.246;2023-04-03T10:40:18;6.28;;;0.80;;
4096;SDS011;2062;50.694;7.246;2023-04-03T10:42:57;3.40;;;0.80;;
4096;SDS011;2062;50.694;7.246;2023-04-03T10:45:32;4.20;;;1.07;;
4096;SDS011;2062;50.694;7.246;2023-04-03T10:48:14;4.60;;;0.88;;
4096;SDS011;2062;50.694;7.246;2023-04-03T10:50:47;3.67;;;0.70;;
4096;SDS011;2062;50.694;7.246;2023-04-03T10:53:23;3.58;;;0.88;;
4096;SDS011;2062;50.694;7.246;2023-04-03T10:56:00;5.72;;;1.10;;
4096;SDS011;2062;50.694;7.246;2023-04-03T10:58:32;3.77;;;0.80;;
4096;SDS011;2062;50.694;7.246;2023-04-03T11:01:07;4.25;;;0.90;;
4096;SDS011;2062;50.694;7.246;2023-04-03T11:03:38;4.70;;;0.88;;
4096;SDS011;2062;50.694;7.246;2023-04-03T11:06:12;4.47;;;0.90;;
4096;SDS011;2062;50.694;7.246;2023-04-03T11:08:42;4.47;;;1.00;;
4096;SDS011;2062;50.694;7.246;2023-04-03T11:11:15;4.93;;;1.00;;
4096;SDS011;2062;50.694;7.246;2023-04-03T11:13:45;3.70;;;0.80;;
4096;SDS011;2062;50.694;7.246;2023-04-03T11:16:19;4.38;;;0.90;;
4096;SDS011;2062;50.694;7.246;2023-04-03T11:18:50;4.05;;;0.90;;
4096;SDS011;2062;50.694;7.246;2023-04-03T11:21:21;3.53;;;0.90;;
4096;SDS011;2062;50.694;7.246;2023-04-03T11:23:56;4.13;;;0.80;;
4096;SDS011;2062;50.694;7.246;2023-04-03T11:26:27;3.90;;;0.77;;
4096;SDS011;2062;50.694;7.246;2023-04-03T11:31:56;4.90;;;0.88;;
4096;SDS011;2062;50.694;7.246;2023-04-03T11:34:36;3.60;;;0.70;;
4096;SDS011;2062;50.694;7.246;2023-04-03T11:37:11;4.23;;;1.00;;
4096;SDS011;2062;50.694;7.246;2023-04-03T11:39:46;3.88;;;1.00;;
4096;SDS011;2062;50.694;7.246;2023-04-03T11:42:22;3.20;;;0.70;;
4096;SDS011;2062;50.694;7.246;2023-04-03T11:45:16;3.65;;;1.00;;
4096;SDS011;2062;50.694;7.246;2023-04-03T11:48:06;4.68;;;0.90;;
4096;SDS011;2062;50.694;7.246;2023-04-03T11:50:56;4.47;;;0.87;;
4096;SDS011;2062;50.694;7.246;2023-04-03T11:53:31;3.70;;;0.70;;
4096;SDS011;2062;50.694;7.246;2023-04-03T12:01:48;5.95;;;1.10;;
4096;SDS011;2062;50.694;7.246;2023-04-03T12:04:18;4.13;;;1.00;;
4096;SDS011;2062;50.694;7.246;2023-04-03T12:06:52;3.63;;;0.70;;
4096;SDS011;2062;50.694;7.246;2023-04-03T12:09:37;3.58;;;0.70;;
4096;SDS011;2062;50.694;7.246;2023-04-03T12:12:30;3.45;;;0.70;;
4096;SDS011;2062;50.694;7.246;2023-04-03T12:15:18;3.80;;;0.80;;
4096;SDS011;2062;50.694;7.246;2023-04-03T12:18:13;3.33;;;0.60;;
4096;SDS011;2062;50.694;7.246;2023-04-03T12:21:08;2.50;;;0.60;;
4096;SDS011;2062;50.694;7.246;2023-04-03T12:23:36;3.47;;;0.68;;
4096;SDS011;2062;50.694;7.246;2023-04-03T12:26:21;3.13;;;0.65;;
4096;SDS011;2062;50.694;7.246;2023-04-03T12:28:52;2.83;;;0.63;;
4096;SDS011;2062;50.694;7.246;2023-04-03T12:31:22;3.90;;;0.90;;
4096;SDS011;2062;50.694;7.246;2023-04-03T12:34:00;4.43;;;0.80;;
4096;SDS011;2062;50.694;7.246;2023-04-03T12:36:39;4.38;;;0.75;;
4096;SDS011;2062;50.694;7.246;2023-04-03T12:39:17;4.40;;;0.80;;
4096;SDS011;2062;50.694;7.246;2023-04-03T12:42:03;4.10;;;0.93;;
4096;SDS011;2062;50.694;7.246;2023-04-03T12:44:45;4.63;;;0.80;;
4096;SDS011;2062;50.694;7.246;2023-04-03T12:47:21;2.88;;;0.60;;
4096;SDS011;2062;50.694;7.246;2023-04-03T12:49:50;2.88;;;0.65;;
4096;SDS011;2062;50.694;7.246;2023-04-03T12:52:22;2.95;;;0.80;;
4096;SDS011;2062;50.694;7.246;2023-04-03T12:54:59;5.65;;;0.90;;
4096;SDS011;2062;50.694;7.246;2023-04-03T12:57:29;3.67;;;0.90;;
4096;SDS011;2062;50.694;7.246;2023-04-03T12:59:57;3.05;;;0.75;;
4096;SDS011;2062;50.694;7.246;2023-04-03T13:02:25;4.40;;;0.70;;
4096;SDS011;2062;50.694;7.246;2023-04-03T13:04:54;4.47;;;0.90;;
4096;SDS011;2062;50.694;7.246;2023-04-03T13:07:27;3.25;;;0.70;;
4096;SDS011;2062;50.694;7.246;2023-04-03T13:10:01;4.90;;;0.80;;
4096;SDS011;2062;50.694;7.246;2023-04-03T13:12:30;3.63;;;0.70;;
4096;SDS011;2062;50.694;7.246;2023-04-03T13:14:58;4.53;;;0.93;;
4096;SDS011;2062;50.694;7.246;2023-04-03T13:17:29;4.38;;;1.10;;
4096;SDS011;2062;50.694;7.246;2023-04-03T13:20:08;4.30;;;1.00;;
4096;SDS011;2062;50.694;7.246;2023-04-03T13:22:38;3.17;;;0.87;;
4096;SDS011;2062;50.694;7.246;2023-04-03T13:25:13;3.92;;;0.77;;
4096;SDS011;2062;50.694;7.246;2023-04-03T13:27:43;4.20;;;0.90;;
4096;SDS011;2062;50.694;7.246;2023-04-03T13:30:20;4.43;;;1.08;;
4096;SDS011;2062;50.694;7.246;2023-04-03T13:32:52;4.90;;;0.80;;
4096;SDS011;2062;50.694;7.246;2023-04-03T13:35:31;4.07;;;0.80;;
4096;SDS011;2062;50.694;7.246;2023-04-03T13:38:02;3.55;;;0.73;;
4096;SDS011;2062;50.694;7.246;2023-04-03T13:40:31;4.95;;;0.82;;
4096;SDS011;2062;50.694;7.246;2023-04-03T13:42:58;3.78;;;0.80;;
4096;SDS011;2062;50.694;7.246;2023-04-03T13:45:27;3.75;;;0.90;;
4096;SDS011;2062;50.694;7.246;2023-04-03T13:48:06;7.03;;;1.10;;
4096;SDS011;2062;50.694;7.246;2023-04-03T13:50:50;5.53;;;1.10;;
4096;SDS011;2062;50.694;7.246;2023-04-03T13:53:24;4.72;;;0.90;;
4096;SDS011;2062;50.694;7.246;2023-04-03T13:55:55;3.50;;;1.00;;
4096;SDS011;2062;50.694;7.246;2023-04-03T13:58:24;4.70;;;0.98;;
4096;SDS011;2062;50.694;7.246;2023-04-03T14:00:53;4.47;;;1.10;;
4096;SDS011;2062;50.694;7.246;2023-04-03T14:03:22;5.10;;;1.02;;
4096;SDS011;2062;50.694;7.246;2023-04-03T14:05:51;4.03;;;1.00;;
4096;SDS011;2062;50.694;7.246;2023-04-03T14:08:19;5.88;;;0.90;;
4096;SDS011;2062;50.694;7.246;2023-04-03T14:10:48;3.97;;;1.08;;
4096;SDS011;2062;50.694;7.246;2023-04-03T14:13:17;4.33;;;0.90;;
4096;SDS011;2062;50.694;7.246;2023-04-03T14:15:45;4.35;;;1.02;;
4096;SDS011;2062;50.694;7.246;2023-04-03T14:18:14;4.15;;;1.05;;
4096;SDS011;2062;50.694;7.246;2023-04-03T14:20:43;4.45;;;1.00;;
4096;SDS011;2062;50.694;7.246;2023-04-03T14:23:10;3.58;;;1.00;;
4096;SDS011;2062;50.694;7.246;2023-04-03T14:25:37;5.00;;;1.07;;
4096;SDS011;2062;50.694;7.246;2023-04-03T14:28:13;4.53;;;0.90;;
4096;SDS011;2062;50.694;7.246;2023-04-03T14:30:43;3.67;;;1.08;;
4096;SDS011;2062;50.694;7.246;2023-04-03T14:33:12;3.30;;;0.80;;
4096;SDS011;2062;50.694;7.246;2023-04-03T14:35:41;4.25;;;0.70;;
4096;SDS011;2062;50.694;7.246;2023-04-03T14:38:12;4.57;;;1.07;;
4096;SDS011;2062;50.694;7.246;2023-04-03T14:40:49;4.95;;;0.90;;
4096;SDS011;2062;50.694;7.246;2023-04-03T14:43:17;3.60;;;1.00;;
4096;SDS011;2062;50.694;7.246;2023-04-03T14:45:45;3.60;;;0.80;;
4096;SDS011;2062;50.694;7.246;2023-04-03T14:48:15;7.07;;;1.25;;
4096;SDS011;2062;50.694;7.246;2023-04-03T14:50:44;3.60;;;1.07;;
4096;SDS011;2062;50.694;7.246;2023-04-03T14:53:11;4.05;;;1.02;;
4096;SDS011;2062;50.694;7.246;2023-04-03T14:55:39;3.30;;;0.90;;
4096;SDS011;2062;50.694;7.246;2023-04-03T14:58:08;3.67;;;0.90;;
4096;SDS011;2062;50.694;7.246;2023-04-03T15:00:39;4.05;;;1.20;;
4096;SDS011;2062;50.694;7.246;2023-04-03T15:03:08;5.13;;;1.10;;
4096;SDS011;2062;50.694;7.246;2023-04-03T15:05:39;3.40;;;0.88;;
4096;SDS011;2062;50.694;7.246;2023-04-03T15:08:08;3.65;;;0.90;;
4096;SDS011;2062;50.694;7.246;2023-04-03T15:10:43;4.22;;;0.90;;
4096;SDS011;2062;50.694;7.246;2023-04-03T15:13:11;4.13;;;0.88;;
4096;SDS011;2062;50.694;7.246;2023-04-03T15:15:40;3.67;;;1.03;;
4096;SDS011;2062;50.694;7.246;2023-04-03T15:18:09;3.88;;;0.93;;
4096;SDS011;2062;50.694;7.246;2023-04-03T15:20:41;6.07;;;1.00;;
4096;SDS011;2062;50.694;7.246;2023-04-03T15:23:08;6.97;;;1.15;;
4096;SDS011;2062;50.694;7.246;2023-04-03T15:25:36;4.00;;;1.02;;
4096;SDS011;2062;50.694;7.246;2023-04-03T15:28:04;3.80;;;0.90;;
4096;SDS011;2062;50.694;7.246;2023-04-03T15:30:31;5.85;;;0.80;;
4096;SDS011;2062;50.694;7.246;2023-04-03T15:33:00;4.68;;;1.00;;
4096;SDS011;2062;50.694;7.246;2023-04-03T15:35:27;4.15;;;0.60;;
4096;SDS011;2062;50.694;7.246;2023-04-03T15:37:54;4.18;;;0.98;;
4096;SDS011;2062;50.694;7.246;2023-04-03T15:40:21;5.37;;;1.00;;
4096;SDS011;2062;50.694;7.246;2023-04-03T15:42:48;3.63;;;0.90;;